createdAt,value
2023-03-13T00:00:12.474Z,99959.23
2023-03-13T00:01:37.949Z,99956.16
2023-03-13T00:02:40.602Z,99962.48
2023-03-13T00:03:43.374Z,99954.81
2023-03-13T00:04:46.119Z,99953.05
2023-03-13T00:05:48.797Z,99951.70
2023-03-13T00:06:51.484Z,99951.16
2023-03-13T00:07:54.241Z,99949.89
2023-03-13T00:08:57.057Z,99949.86
2023-03-13T00:10:00.049Z,99952.98
2023-03-13T00:11:04.377Z,99952.56
2023-03-13T00:12:07.265Z,99948.71
2023-03-13T00:13:09.981Z,99944.98
2023-03-13T00:14:12.929Z,99946.86
2023-03-13T00:15:15.694Z,99946.14
2023-03-13T00:16:18.414Z,99942.58
2023-03-13T00:17:21.097Z,99942.46
2023-03-13T00:18:23.791Z,99941.19
2023-03-13T00:19:26.452Z,99943.04
2023-03-13T00:20:29.795Z,99940.90
2023-03-13T00:21:33.283Z,99944.39
2023-03-13T00:22:36.008Z,99947.48
2023-03-13T00:23:39.003Z,99942.36
2023-03-13T00:24:41.683Z,99940.03
2023-03-13T00:25:44.389Z,99935.36
2023-03-13T00:26:47.047Z,99939.59
2023-03-13T00:27:49.787Z,99930.77
2023-03-13T00:28:53.160Z,99931.68
2023-03-13T00:29:55.870Z,99933.20
2023-03-13T00:31:05.409Z,99931.39
2023-03-13T00:32:08.143Z,99940.90
2023-03-13T00:33:11.002Z,99935.62
2023-03-13T00:34:13.734Z,99936.85
2023-03-13T00:35:16.587Z,99936.02
2023-03-13T00:36:21.060Z,99938.57
2023-03-13T00:37:24.446Z,99937.13
2023-03-13T00:38:28.297Z,99932.46
2023-03-13T00:39:31.024Z,99935.04
2023-03-13T00:40:33.673Z,99929.74
2023-03-13T00:41:37.057Z,99931.33
2023-03-13T00:42:41.083Z,99921.84
2023-03-13T00:43:44.411Z,99922.79
2023-03-13T00:44:47.269Z,99923.67
2023-03-13T00:45:50.016Z,99922.26
2023-03-13T00:46:52.765Z,99921.88
2023-03-13T00:47:55.617Z,99919.46
2023-03-13T00:48:58.289Z,99925.28
2023-03-13T00:50:00.970Z,99913.02
2023-03-13T00:51:03.977Z,99921.79
2023-03-13T00:52:07.016Z,99922.11
2023-03-13T00:53:09.706Z,99922.30
2023-03-13T00:54:12.376Z,99916.55
2023-03-13T00:55:15.196Z,99918.94
2023-03-13T00:56:19.237Z,99917.44
2023-03-13T00:57:21.895Z,99910.06
2023-03-13T00:58:26.044Z,99911.95
2023-03-13T00:59:28.791Z,99905.83
2023-03-13T01:00:31.493Z,99912.59
2023-03-13T01:01:35.801Z,99907.15
2023-03-13T01:02:41.597Z,99907.19
2023-03-13T01:03:46.473Z,99905.17
2023-03-13T01:04:49.139Z,99899.55
2023-03-13T01:05:55.522Z,99900.70
2023-03-13T01:06:58.349Z,99909.21
2023-03-13T01:08:01.029Z,99904.14
2023-03-13T01:09:05.131Z,99903.48
2023-03-13T01:10:07.971Z,99899.76
2023-03-13T01:11:12.464Z,99898.81
2023-03-13T01:12:15.150Z,99894.90
2023-03-13T01:13:17.800Z,99895.41
2023-03-13T01:14:20.545Z,99900.70
2023-03-13T01:15:24.320Z,99895.73
2023-03-13T01:16:27.764Z,99894.23
2023-03-13T01:17:30.780Z,99890.34
2023-03-13T01:18:34.093Z,99892.32
2023-03-13T01:19:36.828Z,99886.45
2023-03-13T01:20:40.987Z,99883.70
2023-03-13T01:21:44.583Z,99885.88
2023-03-13T01:22:47.426Z,99883.54
2023-03-13T01:23:50.960Z,99879.71
2023-03-13T01:24:54.012Z,99881.90
2023-03-13T01:25:57.098Z,99881.16
2023-03-13T01:26:59.775Z,99879.30
2023-03-13T01:28:02.509Z,99878.27
2023-03-13T01:29:05.313Z,99873.91
2023-03-13T01:30:08.377Z,99870.14
2023-03-13T01:31:15.031Z,99880.42
2023-03-13T01:32:17.825Z,99882.77
2023-03-13T01:33:20.514Z,99872.40
2023-03-13T01:34:23.386Z,99881.52
2023-03-13T01:35:27.452Z,99873.79
2023-03-13T01:36:30.379Z,99873.62
2023-03-13T01:37:33.654Z,99873.49
2023-03-13T01:38:36.730Z,99871.53
2023-03-13T01:39:39.463Z,99865.95
2023-03-13T01:40:43.331Z,99864.58
2023-03-13T01:41:45.991Z,99864.33
2023-03-13T01:42:49.729Z,99862.40
2023-03-13T01:43:52.722Z,99868.06
2023-03-13T01:44:57.034Z,99862.95
2023-03-13T01:46:01.239Z,99868.73
2023-03-13T01:47:08.027Z,99867.84
2023-03-13T01:48:30.117Z,99866.69
2023-03-13T01:49:34.725Z,99867.70
2023-03-13T01:50:47.335Z,99860.16
2023-03-13T01:52:04.010Z,99860.77
2023-03-13T01:53:08.148Z,99864.39
2023-03-13T01:54:10.853Z,99857.44
2023-03-13T01:55:16.366Z,99861.75
2023-03-13T01:56:25.500Z,99867.52
2023-03-13T01:57:32.529Z,99861.64
2023-03-13T01:58:36.738Z,99854.79
2023-03-13T01:59:49.161Z,99853.32
2023-03-13T02:00:51.916Z,99862.60
2023-03-13T02:01:57.548Z,99851.80
2023-03-13T02:03:04.178Z,99860.16
2023-03-13T02:04:09.768Z,99843.70
2023-03-13T02:05:14.259Z,99849.73
2023-03-13T02:06:17.764Z,99847.15
2023-03-13T02:07:23.854Z,99849.75
2023-03-13T02:08:52.609Z,99846.14
2023-03-13T02:09:56.871Z,99845.40
2023-03-13T02:11:07.559Z,99840.05
2023-03-13T02:12:11.728Z,99843.84
2023-03-13T02:13:15.481Z,99847.70
2023-03-13T02:14:22.256Z,99843.03
2023-03-13T02:15:26.023Z,99845.05
2023-03-13T02:16:29.438Z,99846.18
2023-03-13T02:17:33.932Z,99841.48
2023-03-13T02:18:38.330Z,99847.09
2023-03-13T02:19:42.318Z,99837.70
2023-03-13T02:20:45.195Z,99836.09
2023-03-13T02:22:06.771Z,99839.08
2023-03-13T02:23:28.042Z,99839.19
2023-03-13T02:24:38.141Z,99831.33
2023-03-13T02:25:48.262Z,99830.27
2023-03-13T02:26:53.086Z,99832.37
2023-03-13T02:27:55.861Z,99841.51
2023-03-13T02:28:58.626Z,99835.73
2023-03-13T02:30:04.288Z,99827.32
2023-03-13T02:31:08.065Z,99834.92
2023-03-13T02:32:11.228Z,99836.94
2023-03-13T02:33:14.829Z,99835.17
2023-03-13T02:34:20.649Z,99836.29
2023-03-13T02:35:24.287Z,99830.92
2023-03-13T02:36:28.421Z,99828.55
2023-03-13T02:37:32.158Z,99833.21
2023-03-13T02:38:45.129Z,99835.54
2023-03-13T02:39:50.206Z,99838.30
2023-03-13T02:40:53.739Z,99837.81
2023-03-13T02:41:57.490Z,99836.56
2023-03-13T02:43:02.957Z,99835.31
2023-03-13T02:44:06.918Z,99828.52
2023-03-13T02:45:10.531Z,99836.16
2023-03-13T02:46:15.342Z,99831.67
2023-03-13T02:47:21.036Z,99833.94
2023-03-13T02:48:34.649Z,99837.45
2023-03-13T02:49:37.400Z,99838.72
2023-03-13T02:50:40.149Z,99832.46
2023-03-13T02:51:44.912Z,99830.29
2023-03-13T02:52:56.205Z,99828.31
2023-03-13T02:54:02.265Z,99831.17
2023-03-13T02:55:09.521Z,99827.23
2023-03-13T02:56:13.278Z,99832.41
2023-03-13T02:57:15.944Z,99824.66
2023-03-13T02:58:18.720Z,99825.80
2023-03-13T02:59:21.578Z,99819.77
2023-03-13T03:00:26.880Z,99829.98
2023-03-13T03:01:30.719Z,99826.79
2023-03-13T03:02:33.586Z,99817.00
2023-03-13T03:03:37.056Z,99821.53
2023-03-13T03:04:39.774Z,99822.58
2023-03-13T03:05:42.528Z,99825.19
2023-03-13T03:06:45.274Z,99833.92
2023-03-13T03:07:48.874Z,99828.73
2023-03-13T03:08:51.597Z,99826.23
2023-03-13T03:09:54.332Z,99832.17
2023-03-13T03:10:57.091Z,99835.10
2023-03-13T03:12:00.049Z,99832.17
2023-03-13T03:13:03.813Z,99835.63
2023-03-13T03:14:06.870Z,99836.98
2023-03-13T03:15:13.108Z,99836.81
2023-03-13T03:16:20.702Z,99837.78
2023-03-13T03:17:23.439Z,99838.93
2023-03-13T03:18:26.276Z,99834.20
2023-03-13T03:19:29.099Z,99830.45
2023-03-13T03:20:31.974Z,99838.22
2023-03-13T03:21:34.724Z,99837.44
2023-03-13T03:22:38.690Z,99832.16
2023-03-13T03:23:41.384Z,99832.06
2023-03-13T03:24:44.196Z,99830.30
2023-03-13T03:25:47.145Z,99826.48
2023-03-13T03:26:50.134Z,99829.58
2023-03-13T03:27:58.238Z,99829.25
2023-03-13T03:29:02.055Z,99826.83
2023-03-13T03:30:05.439Z,99825.82
2023-03-13T03:31:10.118Z,99825.73
2023-03-13T03:32:12.958Z,99827.88
2023-03-13T03:33:15.653Z,99829.46
2023-03-13T03:34:18.353Z,99826.52
2023-03-13T03:35:21.883Z,99830.77
2023-03-13T03:36:24.659Z,99832.80
2023-03-13T03:37:27.573Z,99834.14
2023-03-13T03:38:30.521Z,99831.73
2023-03-13T03:39:33.289Z,99832.50
2023-03-13T03:40:36.522Z,99830.21
2023-03-13T03:41:39.279Z,99827.52
2023-03-13T03:42:42.324Z,99831.45
2023-03-13T03:43:45.219Z,99825.98
2023-03-13T03:44:49.372Z,99828.78
2023-03-13T03:45:52.211Z,99821.29
2023-03-13T03:46:55.463Z,99828.77
2023-03-13T03:48:01.339Z,99825.30
2023-03-13T03:49:04.127Z,99823.80
2023-03-13T03:50:07.763Z,99811.23
2023-03-13T03:51:16.100Z,99813.30
2023-03-13T03:52:20.179Z,99806.48
2023-03-13T03:53:24.294Z,99808.57
2023-03-13T03:54:27.063Z,99805.25
2023-03-13T03:55:29.757Z,99812.77
2023-03-13T03:56:32.641Z,99809.40
2023-03-13T03:57:35.673Z,99811.05
2023-03-13T03:58:39.756Z,99814.27
2023-03-13T03:59:48.232Z,99818.36
2023-03-13T04:00:51.439Z,99811.33
2023-03-13T04:01:54.230Z,99807.83
2023-03-13T04:02:59.573Z,99813.65
2023-03-13T04:04:02.447Z,99814.02
2023-03-13T04:05:05.801Z,99814.98
2023-03-13T04:06:10.610Z,99809.68
2023-03-13T04:07:13.788Z,99812.02
2023-03-13T04:08:16.902Z,99811.85
2023-03-13T04:09:19.661Z,99808.58
2023-03-13T04:10:22.806Z,99812.35
2023-03-13T04:11:25.471Z,99803.94
2023-03-13T04:12:30.548Z,99802.92
2023-03-13T04:13:33.614Z,99795.77
2023-03-13T04:14:36.371Z,99793.06
2023-03-13T04:15:42.255Z,99799.40
2023-03-13T04:16:46.468Z,99798.08
2023-03-13T04:17:50.970Z,99796.44
2023-03-13T04:18:56.184Z,99795.66
2023-03-13T04:20:01.502Z,99797.34
2023-03-13T04:21:06.265Z,99790.83
2023-03-13T04:22:29.201Z,99788.86
2023-03-13T04:23:33.970Z,99794.94
2023-03-13T04:24:36.755Z,99792.41
2023-03-13T04:25:39.591Z,99794.05
2023-03-13T04:26:45.038Z,99782.20
2023-03-13T04:27:48.049Z,99780.08
2023-03-13T04:28:51.091Z,99772.39
2023-03-13T04:29:58.856Z,99777.64
2023-03-13T04:31:01.612Z,99772.20
2023-03-13T04:32:23.168Z,99776.10
2023-03-13T04:33:38.415Z,99772.89
2023-03-13T04:35:02.209Z,99768.66
2023-03-13T04:36:34.003Z,99770.30
2023-03-13T04:37:55.370Z,99764.27
2023-03-13T04:39:06.482Z,99770.39
2023-03-13T04:40:38.848Z,99765.65
2023-03-13T04:41:55.163Z,99769.77
2023-03-13T04:43:18.267Z,99760.96
2023-03-13T04:44:40.046Z,99765.13
2023-03-13T04:46:02.552Z,99761.70
2023-03-13T04:47:38.929Z,99755.16
2023-03-13T04:49:02.046Z,99764.84
2023-03-13T04:50:20.269Z,99753.99
2023-03-13T04:51:34.362Z,99758.84
2023-03-13T04:53:00.772Z,99748.45
2023-03-13T04:54:19.581Z,99752.91
2023-03-13T04:55:41.230Z,99755.83
2023-03-13T04:57:02.572Z,99748.56
2023-03-13T04:58:16.219Z,99748.17
2023-03-13T04:59:23.852Z,99744.95
2023-03-13T05:00:36.231Z,99748.30
2023-03-13T05:01:46.009Z,99748.29
2023-03-13T05:03:06.252Z,99748.93
2023-03-13T05:04:25.586Z,99750.08
2023-03-13T05:05:51.132Z,99748.28
2023-03-13T05:06:53.828Z,99751.46
2023-03-13T05:08:36.260Z,99742.66
2023-03-13T05:09:57.647Z,99742.23
2023-03-13T05:11:23.920Z,99747.46
2023-03-13T05:12:52.510Z,99741.39
2023-03-13T05:14:11.641Z,99743.09
2023-03-13T05:15:26.277Z,99742.23
2023-03-13T05:16:38.920Z,99732.94
2023-03-13T05:17:50.783Z,99736.81
2023-03-13T05:18:57.589Z,99736.96
2023-03-13T05:20:16.564Z,99739.45
2023-03-13T05:21:36.546Z,99734.89
2023-03-13T05:22:58.493Z,99738.68
2023-03-13T05:24:33.281Z,99732.67
2023-03-13T05:25:55.579Z,99738.26
2023-03-13T05:27:16.954Z,99739.92
2023-03-13T05:28:30.024Z,99742.07
2023-03-13T05:29:50.657Z,99743.68
2023-03-13T05:31:13.796Z,99740.85
2023-03-13T05:32:25.911Z,99744.00
2023-03-13T05:34:01.248Z,99745.29
2023-03-13T05:35:20.756Z,99746.75
2023-03-13T05:36:42.382Z,99750.43
2023-03-13T05:37:50.878Z,99741.98
2023-03-13T05:38:53.915Z,99742.84
2023-03-13T05:40:05.879Z,99742.09
2023-03-13T05:41:18.047Z,99744.54
2023-03-13T05:42:39.452Z,99741.76
2023-03-13T05:44:00.235Z,99744.17
2023-03-13T05:45:22.941Z,99743.77
2023-03-13T05:46:31.626Z,99740.96
2023-03-13T05:47:54.644Z,99739.16
2023-03-13T05:49:17.728Z,99736.23
2023-03-13T05:50:38.812Z,99738.16
2023-03-13T05:51:56.304Z,99736.84
2023-03-13T05:53:17.054Z,99739.82
2023-03-13T05:54:40.858Z,99737.93
2023-03-13T05:56:00.384Z,99740.41
2023-03-13T05:57:18.378Z,99741.67
2023-03-13T05:58:47.266Z,99752.21
2023-03-13T06:00:09.041Z,99752.85
2023-03-13T06:01:25.200Z,99748.58
2023-03-13T06:02:33.541Z,99745.08
2023-03-13T06:03:36.423Z,99743.38
2023-03-13T06:04:39.609Z,99739.83
2023-03-13T06:05:42.653Z,99737.25
2023-03-13T06:06:57.011Z,99740.19
2023-03-13T06:08:00.394Z,99733.69
2023-03-13T06:09:03.407Z,99730.31
2023-03-13T06:10:08.239Z,99727.80
2023-03-13T06:11:11.119Z,99738.80
2023-03-13T06:12:14.384Z,99729.27
2023-03-13T06:13:20.307Z,99729.09
2023-03-13T06:14:26.706Z,99729.83
2023-03-13T06:15:57.032Z,99724.42
2023-03-13T06:17:18.588Z,99722.13
2023-03-13T06:18:21.292Z,99718.11
2023-03-13T06:19:24.545Z,99720.60
2023-03-13T06:20:27.367Z,99714.17
2023-03-13T06:21:30.182Z,99724.73
2023-03-13T06:22:32.939Z,99715.10
2023-03-13T06:23:36.179Z,99714.63
2023-03-13T06:24:39.318Z,99716.55
2023-03-13T06:25:42.011Z,99716.23
2023-03-13T06:26:44.770Z,99721.49
2023-03-13T06:27:47.427Z,99715.29
2023-03-13T06:28:50.320Z,99716.04
2023-03-13T06:29:53.112Z,99711.27
2023-03-13T06:30:55.774Z,99716.16
2023-03-13T06:31:58.552Z,99712.25
2023-03-13T06:33:01.523Z,99712.81
2023-03-13T06:34:04.291Z,99714.33
2023-03-13T06:35:07.030Z,99717.30
2023-03-13T06:36:09.957Z,99709.00
2023-03-13T06:37:12.787Z,99711.85
2023-03-13T06:38:15.609Z,99707.61
2023-03-13T06:39:18.290Z,99715.39
2023-03-13T06:40:21.108Z,99714.96
2023-03-13T06:41:24.567Z,99715.39
2023-03-13T06:42:27.289Z,99714.88
2023-03-13T06:43:30.118Z,99716.82
2023-03-13T06:44:32.958Z,99718.49
2023-03-13T06:45:36.202Z,99715.80
2023-03-13T06:46:38.897Z,99718.00
2023-03-13T06:47:41.576Z,99717.14
2023-03-13T06:48:44.818Z,99713.91
2023-03-13T06:49:47.466Z,99717.95
2023-03-13T06:50:50.286Z,99711.40
2023-03-13T06:51:52.979Z,99714.04
2023-03-13T06:52:55.719Z,99716.55
2023-03-13T06:53:58.402Z,99712.86
2023-03-13T06:55:01.130Z,99711.27
2023-03-13T06:56:03.935Z,99712.52
2023-03-13T06:57:06.608Z,99712.89
2023-03-13T06:58:16.149Z,99714.09
2023-03-13T06:59:24.354Z,99709.19
2023-03-13T07:00:27.016Z,99707.19
2023-03-13T07:01:29.720Z,99705.42
2023-03-13T07:02:32.868Z,99705.23
2023-03-13T07:03:36.005Z,99705.91
2023-03-13T07:04:44.178Z,99708.91
2023-03-13T07:05:47.851Z,99710.87
2023-03-13T07:06:51.148Z,99705.24
2023-03-13T07:07:53.808Z,99703.67
2023-03-13T07:08:56.709Z,99700.08
2023-03-13T07:09:59.624Z,99696.85
2023-03-13T07:11:03.538Z,99699.63
2023-03-13T07:12:06.472Z,99691.14
2023-03-13T07:13:09.195Z,99698.52
2023-03-13T07:14:16.969Z,99696.35
2023-03-13T07:15:20.826Z,99698.69
2023-03-13T07:16:23.546Z,99691.86
2023-03-13T07:17:26.293Z,99691.22
2023-03-13T07:18:29.013Z,99686.11
2023-03-13T07:19:31.687Z,99684.96
2023-03-13T07:20:34.406Z,99683.73
2023-03-13T07:21:37.535Z,99686.52
2023-03-13T07:22:40.221Z,99693.55
2023-03-13T07:23:42.945Z,99690.79
2023-03-13T07:24:45.689Z,99688.58
2023-03-13T07:26:02.796Z,99689.20
2023-03-13T07:27:08.010Z,99694.59
2023-03-13T07:28:10.981Z,99692.09
2023-03-13T07:29:13.633Z,99677.98
2023-03-13T07:30:16.399Z,99676.63
2023-03-13T07:31:20.602Z,99677.56
2023-03-13T07:32:23.561Z,99675.17
2023-03-13T07:33:26.267Z,99674.91
2023-03-13T07:34:29.077Z,99668.61
2023-03-13T07:35:32.002Z,99667.58
2023-03-13T07:36:35.550Z,99668.86
2023-03-13T07:37:38.255Z,99670.38
2023-03-13T07:38:41.098Z,99676.54
2023-03-13T07:39:44.072Z,99671.02
2023-03-13T07:40:53.783Z,99673.77
2023-03-13T07:41:56.536Z,99679.73
2023-03-13T07:42:59.201Z,99676.56
2023-03-13T07:44:01.968Z,99673.41
2023-03-13T07:45:04.772Z,99676.38
2023-03-13T07:46:09.389Z,99670.94
2023-03-13T07:47:12.151Z,99666.98
2023-03-13T07:48:14.834Z,99667.74
2023-03-13T07:49:17.584Z,99664.45
2023-03-13T07:50:20.738Z,99659.18
2023-03-13T07:51:36.853Z,99668.11
2023-03-13T07:52:43.357Z,99669.61
2023-03-13T07:53:47.747Z,99663.61
2023-03-13T07:54:50.397Z,99662.94
2023-03-13T07:55:54.009Z,99670.20
2023-03-13T07:56:56.639Z,99668.66
2023-03-13T07:57:59.280Z,99660.52
2023-03-13T07:59:01.947Z,99660.77
2023-03-13T08:00:06.479Z,99656.06
2023-03-13T08:01:19.636Z,99661.75
2023-03-13T08:02:22.395Z,99653.66
2023-03-13T08:03:25.590Z,99651.81
2023-03-13T08:04:28.290Z,99649.05
2023-03-13T08:05:30.922Z,99650.57
2023-03-13T08:06:37.150Z,99648.23
2023-03-13T08:07:39.827Z,99653.19
2023-03-13T08:08:43.090Z,99654.67
2023-03-13T08:09:46.031Z,99649.61
2023-03-13T08:10:48.698Z,99648.98
2023-03-13T08:11:51.448Z,99652.17
2023-03-13T08:12:54.123Z,99650.92
2023-03-13T08:13:58.296Z,99653.52
2023-03-13T08:15:00.946Z,99646.73
2023-03-13T08:16:07.823Z,99652.15
2023-03-13T08:17:10.617Z,99653.45
2023-03-13T08:18:13.285Z,99650.98
2023-03-13T08:19:16.058Z,99651.77
2023-03-13T08:20:21.981Z,99644.29
2023-03-13T08:21:26.450Z,99651.39
2023-03-13T08:22:29.172Z,99643.74
2023-03-13T08:23:32.116Z,99646.73
2023-03-13T08:24:34.799Z,99645.37
2023-03-13T08:25:37.420Z,99649.10
2023-03-13T08:26:40.979Z,99646.46
2023-03-13T08:27:43.973Z,99651.21
2023-03-13T08:28:47.786Z,99648.70
2023-03-13T08:29:50.467Z,99646.65
2023-03-13T08:30:53.332Z,99651.66
2023-03-13T08:31:56.033Z,99645.17
2023-03-13T08:32:58.778Z,99645.48
2023-03-13T08:34:01.771Z,99648.73
2023-03-13T08:35:04.885Z,99643.08
2023-03-13T08:36:21.796Z,99646.63
2023-03-13T08:37:24.476Z,99643.61
2023-03-13T08:38:27.142Z,99633.79
2023-03-13T08:39:29.779Z,99633.71
2023-03-13T08:40:32.439Z,99630.88
2023-03-13T08:41:36.686Z,99636.67
2023-03-13T08:42:40.300Z,99628.73
2023-03-13T08:43:43.458Z,99625.61
2023-03-13T08:44:46.101Z,99623.59
2023-03-13T08:45:54.267Z,99619.09
2023-03-13T08:46:57.745Z,99624.30
2023-03-13T08:48:00.648Z,99622.11
2023-03-13T08:49:04.111Z,99623.05
2023-03-13T08:50:07.046Z,99614.30
2023-03-13T08:51:10.958Z,99604.22
2023-03-13T08:52:13.652Z,99607.79
2023-03-13T08:53:16.334Z,99602.85
2023-03-13T08:54:19.038Z,99597.80
2023-03-13T08:55:21.784Z,99598.14
2023-03-13T08:56:26.012Z,99593.95
2023-03-13T08:57:28.675Z,99597.40
2023-03-13T08:58:31.784Z,99597.14
2023-03-13T08:59:34.846Z,99596.02
2023-03-13T09:00:37.584Z,99592.34
2023-03-13T09:01:40.223Z,99595.14
2023-03-13T09:02:42.936Z,99585.37
2023-03-13T09:03:45.819Z,99583.77
2023-03-13T09:04:48.938Z,99576.70
2023-03-13T09:05:56.343Z,99581.48
2023-03-13T09:06:59.429Z,99585.36
2023-03-13T09:08:02.127Z,99581.64
2023-03-13T09:09:06.186Z,99575.23
2023-03-13T09:10:09.081Z,99571.55
2023-03-13T09:11:16.218Z,99574.23
2023-03-13T09:12:30.399Z,99577.11
2023-03-13T09:13:35.941Z,99566.92
2023-03-13T09:14:38.679Z,99574.91
2023-03-13T09:15:41.328Z,99570.29
2023-03-13T09:16:46.396Z,99569.00
2023-03-13T09:17:49.080Z,99568.32
2023-03-13T09:18:52.542Z,99565.43
2023-03-13T09:20:00.621Z,99556.97
2023-03-13T09:21:05.736Z,99558.73
2023-03-13T09:22:09.699Z,99558.82
2023-03-13T09:23:12.461Z,99564.89
2023-03-13T09:24:15.782Z,99554.26
2023-03-13T09:25:18.418Z,99553.67
2023-03-13T09:26:23.216Z,99553.14
2023-03-13T09:27:28.258Z,99554.11
2023-03-13T09:28:31.003Z,99543.70
2023-03-13T09:29:33.891Z,99545.85
2023-03-13T09:30:36.626Z,99540.33
2023-03-13T09:31:41.250Z,99543.59
2023-03-13T09:32:43.943Z,99535.70
2023-03-13T09:33:48.917Z,99534.84
2023-03-13T09:34:51.566Z,99538.31
2023-03-13T09:35:54.300Z,99539.83
2023-03-13T09:36:57.112Z,99542.17
2023-03-13T09:37:59.817Z,99535.86
2023-03-13T09:39:02.676Z,99540.34
2023-03-13T09:40:05.920Z,99535.11
2023-03-13T09:41:17.414Z,99526.83
2023-03-13T09:42:20.035Z,99525.70
2023-03-13T09:43:35.446Z,99529.70
2023-03-13T09:44:43.467Z,99523.04
2023-03-13T09:45:48.295Z,99524.89
2023-03-13T09:46:54.175Z,99529.38
2023-03-13T09:47:59.532Z,99534.40
2023-03-13T09:49:05.238Z,99533.80
2023-03-13T09:50:20.818Z,99532.76
2023-03-13T09:51:26.008Z,99525.08
2023-03-13T09:52:31.721Z,99531.45
2023-03-13T09:53:40.111Z,99522.80
2023-03-13T09:54:58.863Z,99516.85
2023-03-13T09:56:03.866Z,99512.19
2023-03-13T09:57:19.422Z,99512.51
2023-03-13T09:58:24.634Z,99511.21
2023-03-13T09:59:48.178Z,99513.65
2023-03-13T10:00:55.892Z,99510.40
2023-03-13T10:02:00.565Z,99505.59
2023-03-13T10:03:07.905Z,99509.63
2023-03-13T10:04:19.742Z,99504.02
2023-03-13T10:05:24.216Z,99512.27
2023-03-13T10:06:28.894Z,99505.42
2023-03-13T10:07:31.785Z,99505.05
2023-03-13T10:08:35.143Z,99507.80
2023-03-13T10:09:38.235Z,99510.20
2023-03-13T10:10:45.442Z,99508.14
2023-03-13T10:11:54.313Z,99505.08
2023-03-13T10:13:02.905Z,99506.20
2023-03-13T10:14:11.766Z,99504.59
2023-03-13T10:15:31.796Z,99502.15
2023-03-13T10:16:34.504Z,99510.64
2023-03-13T10:17:40.503Z,99511.80
2023-03-13T10:18:48.831Z,99510.87
2023-03-13T10:19:56.358Z,99509.95
2023-03-13T10:21:01.575Z,99514.22
2023-03-13T10:22:10.584Z,99518.55
2023-03-13T10:23:16.398Z,99518.97
2023-03-13T10:24:25.242Z,99514.74
2023-03-13T10:25:35.389Z,99518.27
2023-03-13T10:26:38.170Z,99514.95
2023-03-13T10:28:02.927Z,99517.06
2023-03-13T10:29:22.839Z,99512.97
2023-03-13T10:30:30.450Z,99512.16
2023-03-13T10:31:34.150Z,99510.76
2023-03-13T10:32:36.864Z,99506.55
2023-03-13T10:33:40.318Z,99503.52
2023-03-13T10:35:00.440Z,99500.17
2023-03-13T10:36:08.232Z,99497.84
2023-03-13T10:37:14.432Z,99492.41
2023-03-13T10:38:21.659Z,99496.96
2023-03-13T10:39:26.456Z,99487.02
2023-03-13T10:40:29.679Z,99490.66
2023-03-13T10:41:36.244Z,99478.89
2023-03-13T10:42:43.549Z,99481.91
2023-03-13T10:43:50.954Z,99470.41
2023-03-13T10:44:59.087Z,99469.77
2023-03-13T10:46:03.974Z,99468.41
2023-03-13T10:47:06.823Z,99469.77
2023-03-13T10:48:15.225Z,99466.20
2023-03-13T10:49:18.953Z,99459.18
2023-03-13T10:50:23.110Z,99459.38
2023-03-13T10:51:31.777Z,99459.60
2023-03-13T10:52:41.525Z,99447.65
2023-03-13T10:53:44.248Z,99448.41
2023-03-13T10:54:46.875Z,99457.37
2023-03-13T10:55:49.969Z,99456.66
2023-03-13T10:57:07.022Z,99456.82
2023-03-13T10:58:16.101Z,99451.58
2023-03-13T10:59:21.804Z,99446.45
2023-03-13T11:00:30.659Z,99444.45
2023-03-13T11:01:42.645Z,99432.65
2023-03-13T11:02:45.435Z,99432.38
2023-03-13T11:03:49.542Z,99442.80
2023-03-13T11:04:54.096Z,99445.11
2023-03-13T11:06:01.479Z,99441.86
2023-03-13T11:07:06.591Z,99434.89
2023-03-13T11:08:22.910Z,99438.59
2023-03-13T11:09:27.713Z,99427.33
2023-03-13T11:10:30.636Z,99435.02
2023-03-13T11:11:43.784Z,99433.59
2023-03-13T11:12:48.046Z,99427.09
2023-03-13T11:13:51.052Z,99437.11
2023-03-13T11:14:57.542Z,99428.75
2023-03-13T11:16:03.184Z,99424.59
2023-03-13T11:17:22.036Z,99421.47
2023-03-13T11:18:29.450Z,99418.69
2023-03-13T11:19:43.826Z,99413.62
2023-03-13T11:20:47.111Z,99415.61
2023-03-13T11:22:04.912Z,99408.61
2023-03-13T11:23:13.568Z,99404.35
2023-03-13T11:24:28.608Z,99396.16
2023-03-13T11:25:36.071Z,99387.40
2023-03-13T11:26:44.674Z,99384.85
2023-03-13T11:27:51.065Z,99378.02
2023-03-13T11:29:12.096Z,99380.76
2023-03-13T11:30:33.892Z,99378.55
2023-03-13T11:31:41.505Z,99371.02
2023-03-13T11:32:44.320Z,99367.23
2023-03-13T11:33:58.500Z,99371.24
2023-03-13T11:35:04.729Z,99370.15
2023-03-13T11:36:07.503Z,99364.61
2023-03-13T11:37:14.648Z,99362.11
2023-03-13T11:38:22.437Z,99358.67
2023-03-13T11:39:34.223Z,99358.84
2023-03-13T11:40:54.790Z,99350.70
2023-03-13T11:42:02.941Z,99345.24
2023-03-13T11:43:25.124Z,99344.79
2023-03-13T11:44:47.324Z,99341.02
2023-03-13T11:45:53.250Z,99342.36
2023-03-13T11:47:14.517Z,99346.15
2023-03-13T11:48:17.206Z,99338.38
2023-03-13T11:49:40.767Z,99339.16
2023-03-13T11:51:07.836Z,99338.55
2023-03-13T11:52:20.803Z,99337.48
2023-03-13T11:53:35.858Z,99337.52
2023-03-13T11:54:58.846Z,99334.52
2023-03-13T11:56:04.629Z,99338.13
2023-03-13T11:57:12.450Z,99338.30
2023-03-13T11:58:17.948Z,99337.70
2023-03-13T11:59:29.782Z,99342.42
2023-03-13T12:00:39.086Z,99333.41
2023-03-13T12:01:47.419Z,99334.05
2023-03-13T12:03:28.795Z,99329.07
2023-03-13T12:04:36.991Z,99326.23
2023-03-13T12:05:53.812Z,99319.56
2023-03-13T12:07:04.262Z,99318.05
2023-03-13T12:08:12.543Z,99320.48
2023-03-13T12:09:21.207Z,99322.30
2023-03-13T12:10:27.485Z,99317.27
2023-03-13T12:11:43.880Z,99316.67
2023-03-13T12:12:55.614Z,99322.26
2023-03-13T12:14:03.237Z,99318.98
2023-03-13T12:15:26.155Z,99323.38
2023-03-13T12:16:41.553Z,99321.46
2023-03-13T12:17:48.643Z,99317.44
2023-03-13T12:18:53.155Z,99316.34
2023-03-13T12:19:59.293Z,99316.05
2023-03-13T12:21:05.555Z,99315.18
2023-03-13T12:22:23.179Z,99313.56
2023-03-13T12:23:34.887Z,99309.77
2023-03-13T12:24:46.231Z,99308.75
2023-03-13T12:25:58.557Z,99309.01
2023-03-13T12:27:11.715Z,99304.26
2023-03-13T12:28:24.074Z,99299.94
2023-03-13T12:29:35.701Z,99295.83
2023-03-13T12:30:43.868Z,99295.53
2023-03-13T12:31:53.551Z,99293.55
2023-03-13T12:33:02.155Z,99292.92
2023-03-13T12:34:23.984Z,99292.44
2023-03-13T12:35:30.454Z,99291.33
2023-03-13T12:36:40.495Z,99297.13
2023-03-13T12:38:06.604Z,99299.08
2023-03-13T12:39:15.479Z,99297.27
2023-03-13T12:40:31.213Z,99299.26
2023-03-13T12:41:42.076Z,99300.75
2023-03-13T12:42:44.898Z,99293.96
2023-03-13T12:44:00.757Z,99291.86
2023-03-13T12:45:18.722Z,99287.69
2023-03-13T12:46:34.847Z,99288.85
2023-03-13T12:47:37.612Z,99288.41
2023-03-13T12:48:46.416Z,99285.57
2023-03-13T12:50:08.294Z,99283.48
2023-03-13T12:51:10.964Z,99282.25
2023-03-13T12:52:19.865Z,99282.29
2023-03-13T12:53:36.166Z,99278.85
2023-03-13T12:55:06.912Z,99276.61
2023-03-13T12:56:20.400Z,99274.10
2023-03-13T12:57:23.107Z,99278.67
2023-03-13T12:58:29.501Z,99280.32
2023-03-13T12:59:36.282Z,99281.16
2023-03-13T13:00:40.864Z,99281.98
2023-03-13T13:01:45.865Z,99279.41
2023-03-13T13:03:00.898Z,99276.56
2023-03-13T13:04:18.495Z,99276.44
2023-03-13T13:05:22.212Z,99279.21
2023-03-13T13:06:25.313Z,99275.34
2023-03-13T13:07:29.401Z,99271.73
2023-03-13T13:08:34.693Z,99270.53